Time;durP1;ratioP1;P1;durP2;ratioP2;P2;SDS_P1;SDS_P2;PMS_P1;PMS_P2;Temp;Humidity;BMP_temperature;BMP_pressure;BME280_temperature;BME280_humidity;BME280_pressure;Samples;Min_cycle;Max_cycle;Signal;HPM_P1;HPM_P2
2022/03/31 00:00:56;;;;;;;3.03;0.30;;;;;;;6.66;74.12;100225.66;7386576;19;20066;-64
2022/03/31 00:03:23;;;;;;;0.77;0.20;;;;;;;6.64;74.34;100214.53;7386462;19;20365;-64
2022/03/31 00:05:51;;;;;;;0.88;0.40;;;;;;;6.59;75.06;100215.94;7388518;19;20450;-64
2022/03/31 00:08:20;;;;;;;1.83;0.80;;;;;;;6.59;75.86;100219.38;7383797;19;20024;-63
2022/03/31 00:10:55;;;;;;;0.63;0.20;;;;;;;6.60;76.25;100214.97;7387142;19;20014;-63
2022/03/31 00:13:25;;;;;;;3.33;0.38;;;;;;;6.58;75.93;100214.28;7385091;19;20022;-63
2022/03/31 00:15:57;;;;;;;0.55;0.30;;;;;;;6.60;77.39;100212.34;7384772;19;20015;-63
2022/03/31 00:18:33;;;;;;;2.63;0.40;;;;;;;6.60;76.99;100225.41;7384841;19;20040;-63
2022/03/31 00:21:00;;;;;;;;;;;;;;;6.62;77.13;100216.44;7384770;19;20014;-63
2022/03/31 00:23:28;;;;;;;1.17;0.30;;;;;;;6.60;77.64;100215.78;7388745;19;19914;-61
2022/03/31 00:25:56;;;;;;;9.60;2.55;;;;;;;6.63;78.67;100215.50;7385101;19;20221;-62
2022/03/31 00:28:23;;;;;;;2.25;0.70;;;;;;;6.64;78.68;100209.31;7384433;19;20041;-62
2022/03/31 00:30:50;;;;;;;1.95;0.25;;;;;;;6.68;76.80;100215.06;7385203;19;20072;-62
2022/03/31 00:33:17;;;;;;;0.70;0.30;;;;;;;6.67;76.89;100209.00;7383354;19;20025;-63
2022/03/31 00:35:45;;;;;;;0.50;0.20;;;;;;;6.65;76.14;100216.19;7385527;19;20074;-63
2022/03/31 00:38:12;;;;;;;3.08;1.08;;;;;;;6.53;75.34;100221.72;7382496;19;20332;-63
2022/03/31 00:40:40;;;;;;;1.15;0.40;;;;;;;6.50;76.77;100225.44;7383070;19;20014;-64
2022/03/31 00:43:09;;;;;;;2.13;0.65;;;;;;;6.50;75.73;100224.63;7382473;19;20011;-65
2022/03/31 00:45:46;;;;;;;1.05;0.38;;;;;;;6.45;76.01;100231.06;7383517;19;20179;-63
2022/03/31 00:48:16;;;;;;;2.92;0.40;;;;;;;6.44;75.27;100233.84;7384393;19;20014;-63
2022/03/31 00:50:44;;;;;;;1.65;0.30;;;;;;;6.48;76.52;100237.81;7385906;19;20083;-63
2022/03/31 00:53:11;;;;;;;2.03;0.30;;;;;;;6.50;75.37;100237.69;7383014;19;20031;-63
2022/03/31 00:55:59;;;;;;;0.20;0.10;;;;;;;6.52;74.68;100230.50;7385232;19;20015;-62
2022/03/31 00:58:26;;;;;;;0.93;0.30;;;;;;;6.51;74.12;100232.28;7380642;19;20014;-63
2022/03/31 01:00:53;;;;;;;1.33;0.40;;;;;;;6.53;75.18;100222.53;7387182;19;20014;-62
2022/03/31 01:03:20;;;;;;;2.33;0.22;;;;;;;6.53;72.96;100219.94;7383493;19;20075;-62
2022/03/31 01:05:46;;;;;;;0.77;0.20;;;;;;;6.56;73.31;100216.19;7385482;19;20496;-62
2022/03/31 01:08:13;;;;;;;3.25;1.17;;;;;;;6.52;73.84;100218.28;7383395;19;20301;-62
2022/03/31 01:10:40;;;;;;;0.25;0.10;;;;;;;6.45;72.56;100207.56;7384995;19;20021;-63
2022/03/31 01:13:07;;;;;;;0.95;0.20;;;;;;;6.32;72.72;100209.66;7383798;19;20022;-63
2022/03/31 01:15:35;;;;;;;2.25;0.20;;;;;;;6.31;73.03;100217.63;7384507;19;20022;-63
2022/03/31 01:18:03;;;;;;;1.95;0.30;;;;;;;6.30;73.19;100203.75;7383599;19;20022;-64
2022/03/31 01:20:30;;;;;;;1.35;0.22;;;;;;;6.27;74.45;100206.66;7383039;19;20800;-64
2022/03/31 01:22:57;;;;;;;1.13;0.30;;;;;;;6.22;73.63;100208.03;7382971;19;20077;-63
2022/03/31 01:25:24;;;;;;;0.85;0.10;;;;;;;6.18;73.48;100207.50;7382368;19;20011;-64
2022/03/31 01:27:51;;;;;;;0.98;0.40;;;;;;;6.10;73.83;100191.69;7386612;19;20086;-64
2022/03/31 01:30:24;;;;;;;3.13;0.40;;;;;;;6.14;74.99;100195.69;7379596;19;20026;-63
2022/03/31 01:32:52;;;;;;;1.13;0.35;;;;;;;6.15;74.68;100186.88;7384952;19;20659;-63
2022/03/31 01:35:19;;;;;;;0.20;0.10;;;;;;;6.15;74.44;100192.09;7381684;19;20015;-63
2022/03/31 01:37:46;;;;;;;1.95;0.45;;;;;;;6.13;73.70;100194.03;7382449;19;20121;-63
2022/03/31 01:40:13;;;;;;;3.30;0.20;;;;;;;6.17;74.02;100200.63;7351728;19;20016;-63
2022/03/31 01:42:45;;;;;;;2.83;0.20;;;;;;;6.15;72.89;100194.69;7378503;19;20007;-63
2022/03/31 01:45:15;;;;;;;1.95;0.40;;;;;;;6.16;74.31;100204.19;7381234;19;20022;-63
2022/03/31 01:47:43;;;;;;;3.90;0.30;;;;;;;6.15;73.70;100202.53;7380006;19;20011;-63
2022/03/31 01:50:09;;;;;;;1.20;0.28;;;;;;;6.11;73.89;100206.41;7379690;19;20025;-64
2022/03/31 01:52:40;;;;;;;0.55;0.20;;;;;;;6.07;74.13;100197.19;7379539;19;20017;-63
2022/03/31 01:55:08;;;;;;;3.85;0.32;;;;;;;6.05;74.37;100200.91;7380880;19;20025;-62
2022/03/31 01:57:35;;;;;;;0.68;0.25;;;;;;;6.05;75.12;100203.50;7382357;19;20015;-63
2022/03/31 02:00:05;;;;;;;1.10;0.30;;;;;;;6.09;75.42;100202.28;7382926;19;20484;-63
2022/03/31 02:02:32;;;;;;;2.03;0.35;;;;;;;6.08;75.42;100198.84;7382855;19;20086;-62
2022/03/31 02:04:59;;;;;;;1.77;0.30;;;;;;;6.11;74.20;100214.22;7381601;19;20466;-62
2022/03/31 02:07:25;;;;;;;2.03;0.50;;;;;;;6.08;74.52;100204.06;7378569;19;20523;-62
2022/03/31 02:09:52;;;;;;;2.33;0.57;;;;;;;6.07;74.23;100202.41;7382817;19;20045;-62
2022/03/31 02:12:19;;;;;;;5.28;0.57;;;;;;;6.05;74.85;100199.13;7380156;19;20093;-62
2022/03/31 02:14:46;;;;;;;1.27;0.20;;;;;;;5.97;74.05;100199.81;7381947;19;20451;-63
2022/03/31 02:17:13;;;;;;;8.65;2.40;;;;;;;5.93;74.71;100189.81;7384626;19;20015;-63
2022/03/31 02:19:43;;;;;;;3.10;0.50;;;;;;;5.87;75.19;100198.19;7380457;19;20014;-63
2022/03/31 02:22:13;;;;;;;1.15;0.30;;;;;;;5.87;74.69;100185.97;7383718;19;20021;-63
2022/03/31 02:24:43;;;;;;;2.25;0.50;;;;;;;5.82;74.74;100195.97;7381996;19;20018;-63
2022/03/31 02:27:11;;;;;;;2.05;0.45;;;;;;;5.83;74.24;100199.41;7383889;19;20312;-62
2022/03/31 02:29:38;;;;;;;1.85;0.40;;;;;;;5.75;73.76;100207.06;7380352;19;20011;-63
2022/03/31 02:32:06;;;;;;;5.72;1.63;;;;;;;5.72;74.87;100205.56;7382221;19;20115;-62
2022/03/31 02:34:34;;;;;;;5.40;0.60;;;;;;;5.71;75.24;100211.75;7384801;19;20306;-62
2022/03/31 02:37:02;;;;;;;1.00;0.45;;;;;;;5.74;74.95;100214.06;7383152;19;20333;-62
2022/03/31 02:39:30;;;;;;;1.92;0.50;;;;;;;5.71;74.76;100209.13;7379937;19;20690;-62
2022/03/31 02:41:57;;;;;;;1.63;0.40;;;;;;;5.72;74.84;100205.56;7379611;19;20038;-63
2022/03/31 02:44:24;;;;;;;2.28;0.38;;;;;;;5.72;75.49;100213.41;7377585;19;20098;-64
2022/03/31 02:46:51;;;;;;;2.85;0.50;;;;;;;5.69;75.15;100212.88;7381308;19;20369;-63
2022/03/31 02:49:19;;;;;;;2.47;0.55;;;;;;;5.69;75.04;100208.44;7379644;19;20019;-63
2022/03/31 02:51:46;;;;;;;1.20;0.85;;;;;;;5.69;75.21;100211.06;7380852;19;20046;-63
2022/03/31 02:56:58;;;;;;;3.53;0.47;;;;;;;5.64;75.87;100208.03;7387324;19;20085;-63
2022/03/31 02:59:25;;;;;;;2.33;0.40;;;;;;;5.61;75.09;100213.53;7391388;19;20439;-63
2022/03/31 03:01:52;;;;;;;0.80;0.30;;;;;;;5.58;75.23;100208.59;7387278;19;20015;-64
2022/03/31 03:04:19;;;;;;;2.17;0.40;;;;;;;5.50;75.80;100221.47;7387017;19;20007;-64
2022/03/31 03:06:45;;;;;;;1.48;0.40;;;;;;;5.52;75.03;100206.53;7389571;19;20363;-63
2022/03/31 03:09:12;;;;;;;0.57;0.20;;;;;;;5.49;75.19;100199.78;7386660;19;20282;-64
2022/03/31 03:11:39;;;;;;;0.82;0.30;;;;;;;5.50;75.57;100198.00;7389724;19;20045;-63
2022/03/31 03:14:06;;;;;;;3.30;0.50;;;;;;;5.52;75.46;100190.88;7386755;19;20015;-63
2022/03/31 03:16:33;;;;;;;1.40;0.68;;;;;;;5.49;74.87;100191.94;7387026;19;20619;-63
2022/03/31 03:19:00;;;;;;;14.52;4.80;;;;;;;5.47;75.19;100199.13;7386246;19;20010;-63
2022/03/31 03:21:27;;;;;;;1.60;0.70;;;;;;;5.49;75.87;100202.38;7385585;19;20010;-63
2022/03/31 03:23:54;;;;;;;0.70;0.30;;;;;;;5.45;74.88;100198.41;7386587;19;20017;-63
2022/03/31 03:26:27;;;;;;;2.53;0.70;;;;;;;5.42;74.75;100200.47;7387044;19;20805;-63
2022/03/31 03:28:56;;;;;;;1.23;0.50;;;;;;;5.43;75.16;100204.75;7388760;19;20097;-63
2022/03/31 03:31:23;;;;;;;1.80;0.50;;;;;;;5.46;75.09;100205.28;7386263;19;20025;-63
2022/03/31 03:33:50;;;;;;;1.70;0.60;;;;;;;5.43;74.53;100221.22;7387526;19;20516;-63
2022/03/31 03:36:18;;;;;;;1.80;0.40;;;;;;;5.41;74.85;100207.47;7389056;19;20011;-63
2022/03/31 03:38:49;;;;;;;2.47;0.82;;;;;;;5.40;75.32;100205.00;7386584;19;20021;-63
2022/03/31 03:41:16;;;;;;;1.25;0.50;;;;;;;5.36;75.67;100214.88;7383107;19;20019;-63
2022/03/31 03:43:43;;;;;;;1.92;0.50;;;;;;;5.32;75.29;100208.28;7383512;19;20468;-63
2022/03/31 03:46:10;;;;;;;4.32;1.50;;;;;;;5.33;76.11;100209.94;7389163;19;20090;-64
2022/03/31 03:48:37;;;;;;;3.45;0.68;;;;;;;5.33;75.43;100204.72;7385680;19;20074;-63
2022/03/31 03:51:04;;;;;;;1.40;0.60;;;;;;;5.30;75.52;100204.16;7387701;19;20439;-63
2022/03/31 03:53:31;;;;;;;2.40;0.60;;;;;;;5.18;75.50;100211.28;7389742;19;20014;-63
2022/03/31 03:55:58;;;;;;;2.25;0.60;;;;;;;5.18;75.64;100206.06;7385540;19;20014;-63
2022/03/31 03:58:25;;;;;;;2.00;0.90;;;;;;;5.18;76.07;100220.88;7383639;19;20018;-63
2022/03/31 04:00:53;;;;;;;3.58;0.77;;;;;;;5.16;76.30;100223.63;7386452;19;20363;-63
2022/03/31 04:03:20;;;;;;;1.20;0.50;;;;;;;5.10;76.20;100211.94;7383382;19;20011;-63
2022/03/31 04:05:47;;;;;;;3.00;0.70;;;;;;;5.15;76.59;100225.41;7387832;19;20324;-63
2022/03/31 04:08:14;;;;;;;6.32;0.88;;;;;;;5.19;76.20;100218.13;7386424;19;20018;-62
2022/03/31 04:10:41;;;;;;;3.47;0.75;;;;;;;5.21;75.86;100218.00;7388074;19;20045;-62
2022/03/31 04:13:08;;;;;;;3.40;0.88;;;;;;;5.18;75.62;100217.28;7389721;19;20020;-62
2022/03/31 04:15:35;;;;;;;2.92;1.23;;;;;;;5.18;75.89;100224.31;7387066;19;20485;-63
2022/03/31 04:18:02;;;;;;;3.22;0.90;;;;;;;5.17;75.79;100227.88;7385154;19;20011;-63
2022/03/31 04:20:29;;;;;;;3.03;0.70;;;;;;;5.16;76.35;100221.00;7385267;19;20082;-63
2022/03/31 04:22:56;;;;;;;3.00;0.60;;;;;;;5.16;76.07;100223.63;7383650;19;20014;-63
2022/03/31 04:25:24;;;;;;;3.45;0.70;;;;;;;5.18;75.74;100228.72;7384518;19;20021;-63
2022/03/31 04:27:50;;;;;;;1.92;0.77;;;;;;;5.12;75.64;100223.06;7385971;19;20074;-63
2022/03/31 04:30:20;;;;;;;4.72;1.30;;;;;;;5.11;75.64;100216.19;7384037;19;20022;-63
2022/03/31 04:32:48;;;;;;;3.50;1.25;;;;;;;5.10;75.19;100231.97;7384397;19;20006;-63
2022/03/31 04:35:16;;;;;;;5.93;0.90;;;;;;;5.10;75.28;100231.97;7388649;19;20035;-63
2022/03/31 04:37:43;;;;;;;6.13;1.73;;;;;;;5.06;75.30;100223.59;7387333;19;20097;-63
2022/03/31 04:40:10;;;;;;;3.15;1.55;;;;;;;5.02;75.56;100224.81;7384708;19;20019;-63
2022/03/31 04:42:38;;;;;;;4.93;1.70;;;;;;;5.03;75.75;100218.63;7385322;19;20022;-62
2022/03/31 04:45:06;;;;;;;4.70;1.88;;;;;;;4.98;74.86;100222.59;7384195;19;20006;-63
2022/03/31 04:47:32;;;;;;;3.75;1.70;;;;;;;4.98;75.53;100225.19;7383847;19;20021;-62
2022/03/31 04:49:59;;;;;;;3.38;1.55;;;;;;;4.95;75.66;100220.25;7382815;19;20078;-63
2022/03/31 04:52:26;;;;;;;4.22;1.40;;;;;;;4.90;75.75;100220.66;7384485;19;20495;-63
2022/03/31 04:54:53;;;;;;;4.13;1.40;;;;;;;4.83;76.19;100216.91;7383521;19;20017;-63
2022/03/31 04:57:22;;;;;;;2.88;1.40;;;;;;;4.85;76.62;100232.41;7383846;19;20364;-63
2022/03/31 04:59:49;;;;;;;4.82;1.50;;;;;;;4.86;76.55;100221.06;7383163;19;20022;-63
2022/03/31 05:02:18;;;;;;;4.35;1.90;;;;;;;4.88;76.52;100219.13;7385332;19;20328;-62
2022/03/31 05:04:45;;;;;;;3.40;1.05;;;;;;;4.88;76.11;100226.94;7386616;19;20006;-63
2022/03/31 05:07:12;;;;;;;3.70;1.58;;;;;;;4.91;76.36;100224.09;7383672;19;20263;-63
2022/03/31 05:09:39;;;;;;;4.40;0.90;;;;;;;4.86;76.98;100227.09;7383087;19;20018;-64
2022/03/31 05:12:06;;;;;;;3.60;1.27;;;;;;;4.88;75.64;100222.56;7382745;19;20011;-63
2022/03/31 05:14:34;;;;;;;2.03;0.90;;;;;;;4.86;76.15;100227.09;7382585;19;20325;-63
2022/03/31 05:17:01;;;;;;;5.93;1.00;;;;;;;4.87;76.12;100228.75;7383168;19;20045;-63
2022/03/31 05:19:28;;;;;;;3.35;1.63;;;;;;;4.89;76.42;100228.59;7382388;19;20006;-64
2022/03/31 05:21:55;;;;;;;4.85;1.55;;;;;;;4.85;75.95;100225.44;7382949;19;20062;-63
2022/03/31 05:24:23;;;;;;;2.58;0.70;;;;;;;4.83;75.32;100227.34;7382533;19;20025;-63
2022/03/31 05:26:52;;;;;;;1.80;0.70;;;;;;;4.82;75.83;100235.31;7384734;19;20013;-63
2022/03/31 05:29:22;;;;;;;2.22;0.80;;;;;;;4.68;75.25;100231.25;7381843;19;20467;-64
2022/03/31 05:31:50;;;;;;;4.40;0.60;;;;;;;4.63;75.38;100236.84;7383977;19;20470;-63
2022/03/31 05:34:19;;;;;;;4.05;0.68;;;;;;;4.58;75.77;100238.19;7382619;19;20027;-63
2022/03/31 05:36:46;;;;;;;2.10;0.60;;;;;;;4.58;75.58;100223.38;7384635;19;20015;-63
2022/03/31 05:39:13;;;;;;;2.65;0.55;;;;;;;4.56;75.04;100234.91;7383296;19;20007;-63
2022/03/31 05:41:40;;;;;;;2.25;0.63;;;;;;;4.54;75.28;100224.59;7380513;19;20034;-64
2022/03/31 05:44:07;;;;;;;4.53;0.80;;;;;;;4.51;75.39;100237.91;7384819;19;20015;-64
2022/03/31 05:46:33;;;;;;;3.50;0.77;;;;;;;4.52;75.70;100252.53;7382950;19;20194;-63
2022/03/31 05:49:00;;;;;;;3.92;0.80;;;;;;;4.53;75.35;100245.56;7382774;19;20014;-63
2022/03/31 05:51:27;;;;;;;3.17;0.85;;;;;;;4.56;75.66;100246.16;7385288;19;20025;-64
2022/03/31 05:53:54;;;;;;;2.83;0.60;;;;;;;4.58;75.07;100246.81;7382166;19;20021;-63
2022/03/31 05:56:27;;;;;;;3.35;0.77;;;;;;;4.59;75.92;100239.84;7384449;19;20363;-63
2022/03/31 05:58:56;;;;;;;2.83;0.75;;;;;;;4.55;74.94;100248.88;7382662;19;20364;-64
2022/03/31 06:01:22;;;;;;;1.02;0.60;;;;;;;4.55;74.82;100246.28;7382462;19;20011;-63
2022/03/31 06:03:49;;;;;;;2.25;0.50;;;;;;;4.56;74.82;100246.16;7380923;19;20014;-63
2022/03/31 06:06:16;;;;;;;1.50;0.60;;;;;;;4.53;75.10;100251.59;7384694;19;20018;-64
2022/03/31 06:08:45;;;;;;;2.00;0.80;;;;;;;4.57;75.41;100255.59;7379536;19;20328;-63
2022/03/31 06:11:12;;;;;;;3.42;0.50;;;;;;;4.61;75.30;100267.44;7383296;19;20011;-64
2022/03/31 06:13:39;;;;;;;1.40;0.50;;;;;;;4.63;74.54;100268.09;7384218;19;20093;-64
2022/03/31 06:16:05;;;;;;;5.20;0.60;;;;;;;4.60;73.91;100270.97;7384150;19;20010;-63
2022/03/31 06:18:32;;;;;;;1.23;0.50;;;;;;;4.56;74.70;100264.38;7384527;19;20602;-64
2022/03/31 06:20:59;;;;;;;2.78;0.50;;;;;;;4.57;74.13;100267.81;7381727;19;20087;-64
2022/03/31 06:23:27;;;;;;;5.85;1.00;;;;;;;4.58;75.00;100275.47;7378607;19;20574;-63
2022/03/31 06:26:05;;;;;;;2.47;0.55;;;;;;;4.65;75.37;100271.41;7383064;19;20020;-62
2022/03/31 06:28:33;;;;;;;1.30;0.88;;;;;;;4.66;74.01;100278.28;7382912;19;20090;-63
2022/03/31 06:31:00;;;;;;;2.92;0.77;;;;;;;4.70;74.93;100278.84;7388884;19;20010;-63
2022/03/31 06:33:27;;;;;;;2.10;0.50;;;;;;;4.72;74.00;100284.75;7387572;19;20014;-63
2022/03/31 06:35:54;;;;;;;3.15;0.73;;;;;;;4.69;74.22;100275.41;7389568;19;20007;-62
2022/03/31 06:38:22;;;;;;;4.40;1.02;;;;;;;4.69;74.48;100288.44;7389265;19;20091;-63
2022/03/31 06:41:07;;;;;;;3.83;0.80;;;;;;;4.63;73.88;100296.75;7389930;19;20006;-63
2022/03/31 06:43:34;;;;;;;2.65;0.85;;;;;;;4.58;74.88;100295.50;7387011;19;20356;-63
2022/03/31 06:46:02;;;;;;;3.22;0.90;;;;;;;4.60;75.16;100289.22;7391334;19;20051;-64
2022/03/31 06:48:32;;;;;;;1.98;0.70;;;;;;;4.58;74.61;100288.50;7388453;19;20018;-63
2022/03/31 06:50:59;;;;;;;4.90;0.93;;;;;;;4.59;75.08;100290.16;7391028;19;20374;-63
2022/03/31 06:53:26;;;;;;;3.65;0.93;;;;;;;4.61;75.50;100288.25;7388168;19;20018;-63
2022/03/31 06:55:53;;;;;;;3.47;2.00;;;;;;;4.65;74.84;100292.25;7388088;19;20015;-64
2022/03/31 06:58:25;;;;;;;4.95;1.40;;;;;;;4.73;74.80;100305.47;7386070;19;20014;-63
2022/03/31 07:00:52;;;;;;;6.00;1.88;;;;;;;4.75;74.84;100307.94;7388619;19;20459;-65
2022/03/31 07:03:19;;;;;;;3.40;1.20;;;;;;;4.81;75.32;100309.22;7386402;19;20010;-64
2022/03/31 07:05:46;;;;;;;2.03;0.90;;;;;;;4.86;76.32;100317.47;7388274;19;20083;-63
2022/03/31 07:08:12;;;;;;;4.80;1.15;;;;;;;4.92;76.17;100302.16;7386214;19;20017;-63
2022/03/31 07:10:39;;;;;;;5.63;1.40;;;;;;;4.99;74.66;100308.47;7389844;19;20600;-63
2022/03/31 07:13:06;;;;;;;2.00;0.82;;;;;;;5.05;73.89;100302.75;7389873;19;20021;-63
2022/03/31 07:15:34;;;;;;;3.83;1.10;;;;;;;5.22;72.99;100309.13;7389367;19;20070;-63
2022/03/31 07:18:03;;;;;;;2.13;1.05;;;;;;;5.35;72.03;100303.69;7390054;19;20019;-65
2022/03/31 07:20:31;;;;;;;4.80;1.75;;;;;;;5.34;72.28;100308.06;7390129;19;20042;-64
2022/03/31 07:22:58;;;;;;;2.50;0.98;;;;;;;5.36;72.50;100328.81;7387404;19;20021;-64
2022/03/31 07:25:25;;;;;;;2.90;0.70;;;;;;;5.20;72.49;100325.84;7385238;19;20863;-65
2022/03/31 07:27:52;;;;;;;2.92;0.90;;;;;;;5.18;73.16;100315.56;7388689;19;20416;-63
2022/03/31 07:30:21;;;;;;;3.72;0.95;;;;;;;5.14;73.05;100314.16;7390603;19;20723;-64
2022/03/31 07:32:54;;;;;;;1.67;0.75;;;;;;;5.18;74.50;100314.75;7387907;19;20015;-64
2022/03/31 07:35:24;;;;;;;3.92;1.00;;;;;;;5.16;73.38;100320.09;7390582;19;20159;-64
2022/03/31 07:37:52;;;;;;;1.83;0.70;;;;;;;5.23;73.04;100313.41;7391576;19;20014;-64
2022/03/31 07:40:20;;;;;;;3.47;0.75;;;;;;;5.28;73.18;100319.03;7386477;19;20086;-63
2022/03/31 07:42:48;;;;;;;4.68;0.75;;;;;;;5.24;73.03;100325.47;7385371;19;20480;-63
2022/03/31 07:45:15;;;;;;;3.40;0.70;;;;;;;5.08;73.36;100325.94;7387512;19;20018;-65
2022/03/31 07:47:43;;;;;;;2.53;0.57;;;;;;;4.98;74.34;100330.28;7387921;19;20328;-65
2022/03/31 07:50:12;;;;;;;3.72;1.17;;;;;;;5.06;74.25;100330.47;7390058;19;20021;-64
2022/03/31 07:52:41;;;;;;;3.05;1.17;;;;;;;5.18;75.42;100333.84;7375334;19;20011;-63
2022/03/31 07:55:09;;;;;;;2.53;0.98;;;;;;;5.25;74.10;100334.94;7384361;19;20014;-64
2022/03/31 07:57:38;;;;;;;1.80;0.80;;;;;;;5.34;74.85;100333.31;7385423;19;20040;-63
2022/03/31 08:00:07;;;;;;;2.40;0.80;;;;;;;5.44;73.71;100329.78;7389181;19;20026;-64
2022/03/31 08:02:34;;;;;;;4.35;1.30;;;;;;;5.58;73.71;100333.84;7385804;19;20523;-64
2022/03/31 08:05:01;;;;;;;3.60;0.77;;;;;;;5.68;73.53;100326.84;7387265;19;20029;-64
2022/03/31 08:07:33;;;;;;;3.63;0.80;;;;;;;5.86;73.15;100337.44;7386802;19;20460;-65
2022/03/31 08:10:00;;;;;;;3.10;0.50;;;;;;;6.21;73.49;100344.81;7386298;19;20018;-63
2022/03/31 08:12:27;;;;;;;3.50;0.50;;;;;;;6.11;71.37;100342.19;7385823;19;20670;-63
2022/03/31 08:14:54;;;;;;;1.75;0.50;;;;;;;5.97;70.65;100345.19;7389171;19;20015;-65
2022/03/31 08:17:21;;;;;;;2.40;0.57;;;;;;;5.91;71.20;100349.19;7386067;19;20081;-64
2022/03/31 08:19:48;;;;;;;2.35;0.63;;;;;;;5.87;71.74;100339.97;7386202;19;20014;-63
2022/03/31 08:22:16;;;;;;;4.22;0.80;;;;;;;5.87;71.66;100337.34;7385285;19;20008;-63
2022/03/31 08:24:44;;;;;;;1.92;0.63;;;;;;;5.86;72.51;100355.72;7380968;19;20129;-64
2022/03/31 08:27:11;;;;;;;3.17;0.65;;;;;;;5.89;72.37;100345.88;7389514;19;20190;-65
2022/03/31 08:29:39;;;;;;;1.85;0.65;;;;;;;5.87;72.64;100347.81;7388294;19;20022;-65
2022/03/31 08:32:10;;;;;;;3.45;0.82;;;;;;;5.94;73.21;100374.19;7386815;19;20413;-62
2022/03/31 08:34:42;;;;;;;4.38;1.00;;;;;;;5.91;74.08;100366.63;7385766;19;20023;-62
2022/03/31 08:37:15;;;;;;;5.45;0.95;;;;;;;5.86;75.29;100353.94;7385616;19;20022;-63
2022/03/31 08:39:42;;;;;;;2.97;0.90;;;;;;;5.83;75.63;100346.41;7383165;19;20018;-63
2022/03/31 08:42:11;;;;;;;3.47;1.15;;;;;;;5.86;75.35;100353.94;7384814;19;20010;-63
2022/03/31 08:44:39;;;;;;;2.92;0.90;;;;;;;5.83;73.71;100356.84;7381939;19;20433;-62
2022/03/31 08:47:08;;;;;;;5.38;1.75;;;;;;;5.93;74.43;100354.28;7383214;19;20065;-63
2022/03/31 08:49:38;;;;;;;3.47;1.40;;;;;;;6.05;73.30;100363.63;7383598;19;20463;-63
2022/03/31 08:52:06;;;;;;;3.25;1.05;;;;;;;6.13;72.60;100370.78;7383973;19;20019;-63
2022/03/31 08:54:32;;;;;;;4.88;1.70;;;;;;;6.10;72.59;100363.22;7363666;19;20015;-63
2022/03/31 08:56:59;;;;;;;4.75;1.00;;;;;;;6.07;72.64;100366.09;7375466;19;20025;-63
2022/03/31 08:59:47;;;;;;;6.60;0.90;;;;;;;6.05;72.85;100388.91;7387223;19;20302;-63
2022/03/31 09:02:25;;;;;;;2.90;0.70;;;;;;;5.86;74.10;100367.00;7386112;19;20503;-64
2022/03/31 09:05:06;;;;;;;4.60;0.93;;;;;;;5.93;75.52;100378.59;7382505;19;20010;-62
2022/03/31 09:07:33;;;;;;;5.45;1.65;;;;;;;5.97;76.09;100379.13;7386492;19;20018;-62
2022/03/31 09:10:00;;;;;;;2.15;0.77;;;;;;;5.96;75.77;100399.19;7386163;19;20166;-64
2022/03/31 09:12:38;;;;;;;2.22;0.52;;;;;;;5.91;75.25;100395.34;7381645;19;20037;-64
2022/03/31 09:15:25;;;;;;;6.40;1.20;;;;;;;5.88;77.36;100399.06;7383367;19;20003;-63
2022/03/31 09:17:57;;;;;;;4.75;0.60;;;;;;;5.90;76.89;100402.34;7383383;19;20074;-63
2022/03/31 09:20:38;;;;;;;0.55;0.25;;;;;;;5.91;75.97;100411.00;7384464;19;20122;-64
2022/03/31 09:23:06;;;;;;;0.65;0.20;;;;;;;5.80;75.28;100411.91;7387301;19;20036;-63
2022/03/31 09:25:33;;;;;;;6.82;0.55;;;;;;;5.88;76.31;100422.56;7386156;19;20082;-64
2022/03/31 09:28:11;;;;;;;1.10;0.20;;;;;;;5.92;76.30;100413.50;7385942;19;20024;-63
2022/03/31 09:30:50;;;;;;;4.10;0.60;;;;;;;6.00;77.10;100421.47;7386395;19;20014;-63
2022/03/31 09:33:31;;;;;;;3.65;0.40;;;;;;;6.16;76.75;100430.56;7382977;19;20048;-65
2022/03/31 09:36:07;;;;;;;4.63;0.30;;;;;;;6.22;73.78;100432.66;7384098;19;20022;-65
2022/03/31 09:39:07;;;;;;;4.93;0.13;;;;;;;6.32;73.64;100425.66;7384921;19;20110;-63
2022/03/31 09:41:36;;;;;;;3.45;0.20;;;;;;;6.35;72.33;100409.69;7380735;19;20014;-64
2022/03/31 09:44:06;;;;;;;0.90;0.20;;;;;;;6.47;72.29;100421.69;7382020;19;20011;-64
2022/03/31 09:46:36;;;;;;;0.88;0.20;;;;;;;6.59;70.64;100443.28;7384960;19;20505;-64
2022/03/31 09:49:14;;;;;;;5.45;0.20;;;;;;;6.62;69.78;100433.38;7386474;19;20018;-62
2022/03/31 09:51:58;;;;;;;4.63;0.20;;;;;;;6.58;69.43;100429.41;7384022;19;20019;-63
2022/03/31 09:54:29;;;;;;;3.45;0.25;;;;;;;6.54;68.10;100430.63;7386004;19;20010;-63
2022/03/31 09:56:58;;;;;;;7.82;2.72;;;;;;;6.53;67.07;100452.50;7380094;19;20409;-63
2022/03/31 09:59:33;;;;;;;2.90;0.22;;;;;;;6.51;66.70;100428.28;7383896;19;20020;-63
2022/03/31 10:02:01;;;;;;;4.35;0.30;;;;;;;6.57;66.00;100422.50;7385010;19;20010;-63
2022/03/31 10:04:28;;;;;;;1.45;0.20;;;;;;;6.67;65.18;100422.50;7386932;19;20007;-64
2022/03/31 10:06:56;;;;;;;3.47;0.30;;;;;;;6.80;65.56;100423.91;7389328;19;20042;-65
2022/03/31 10:09:23;;;;;;;5.57;0.32;;;;;;;6.85;62.95;100420.88;7387896;19;20010;-65
2022/03/31 10:11:58;;;;;;;2.05;0.17;;;;;;;6.91;62.43;100414.25;7390277;19;20017;-61
2022/03/31 10:14:25;;;;;;;1.90;0.25;;;;;;;6.98;61.60;100425.78;7392459;19;20350;-63
2022/03/31 10:16:57;;;;;;;6.38;0.25;;;;;;;7.02;60.43;100420.13;7389376;19;20392;-64
2022/03/31 10:19:35;;;;;;;2.72;0.30;;;;;;;7.03;59.76;100437.50;7390396;19;20465;-63
2022/03/31 10:25:13;;;;;;;2.90;0.40;;;;;;;7.12;57.68;100441.03;7385885;19;20329;-63
2022/03/31 10:27:50;;;;;;;2.20;0.22;;;;;;;7.14;56.89;100441.75;7388436;19;20065;-65
2022/03/31 10:30:25;;;;;;;4.47;0.45;;;;;;;7.21;57.00;100430.56;7388733;19;20030;-64
2022/03/31 10:33:03;;;;;;;5.05;0.40;;;;;;;7.32;55.65;100443.47;7384684;19;20069;-63
2022/03/31 10:35:33;;;;;;;5.20;0.32;;;;;;;7.38;52.03;100454.34;7389403;19;20021;-65
2022/03/31 10:38:17;;;;;;;16.73;0.85;;;;;;;7.43;50.22;100454.75;7389778;19;20093;-63
2022/03/31 10:40:52;;;;;;;4.80;0.20;;;;;;;7.48;50.78;100440.28;7387343;19;20528;-63
2022/03/31 10:43:28;;;;;;;8.65;0.40;;;;;;;7.53;47.93;100451.13;7382761;19;20010;-64
2022/03/31 10:45:58;;;;;;;7.05;0.25;;;;;;;7.53;47.86;100445.91;7385310;19;20476;-63
2022/03/31 10:48:27;;;;;;;2.30;0.20;;;;;;;7.63;48.00;100440.63;7385665;19;20447;-63
2022/03/31 10:51:05;;;;;;;3.08;0.30;;;;;;;7.72;47.60;100427.50;7388779;19;20643;-63
2022/03/31 10:53:36;;;;;;;7.93;0.20;;;;;;;7.86;46.99;100439.31;7390536;19;20013;-64
2022/03/31 10:56:29;;;;;;;2.55;0.40;;;;;;;7.97;47.24;100436.50;7390494;19;20034;-63
2022/03/31 10:59:00;;;;;;;6.10;0.28;;;;;;;8.11;43.04;100435.19;7385789;19;20323;-63
2022/03/31 11:01:33;;;;;;;4.93;0.35;;;;;;;8.13;41.70;100428.81;7387760;19;20130;-63
2022/03/31 11:04:04;;;;;;;3.42;0.10;;;;;;;8.19;40.87;100453.59;7386625;19;20248;-64
2022/03/31 11:06:51;;;;;;;3.72;0.10;;;;;;;8.16;41.98;100432.94;7391207;19;20633;-63
2022/03/31 11:09:20;;;;;;;3.22;0.20;;;;;;;8.14;41.19;100429.63;7389182;19;20038;-63
2022/03/31 11:11:50;;;;;;;2.08;0.20;;;;;;;8.18;40.74;100440.66;7390529;19;20025;-64
2022/03/31 11:14:18;;;;;;;2.53;0.30;;;;;;;8.05;41.68;100433.16;7388012;19;20014;-63
2022/03/31 11:16:49;;;;;;;4.70;0.57;;;;;;;8.16;42.33;100431.16;7385616;19;20066;-65
2022/03/31 11:19:19;;;;;;;2.13;0.17;;;;;;;8.15;42.21;100423.44;7388537;19;20021;-64
2022/03/31 11:21:48;;;;;;;3.75;0.28;;;;;;;8.27;42.73;100429.31;7387129;19;20014;-64
2022/03/31 11:24:23;;;;;;;5.13;0.35;;;;;;;8.29;40.82;100451.75;7385220;19;20010;-64
2022/03/31 11:26:54;;;;;;;2.22;0.30;;;;;;;8.31;40.95;100421.03;7387393;19;20014;-63
2022/03/31 11:29:26;;;;;;;4.68;0.30;;;;;;;8.35;38.62;100453.00;7388699;19;20021;-63
2022/03/31 11:31:54;;;;;;;1.08;0.10;;;;;;;8.35;37.74;100430.22;7387951;19;20014;-65
2022/03/31 11:34:30;;;;;;;2.60;0.40;;;;;;;8.31;36.54;100425.44;7387353;19;20107;-62
2022/03/31 11:37:00;;;;;;;2.30;0.20;;;;;;;8.27;36.50;100427.50;7389145;19;20011;-63
2022/03/31 11:39:30;;;;;;;2.53;0.20;;;;;;;8.33;37.54;100420.88;7387458;19;20018;-63
2022/03/31 11:41:59;;;;;;;2.10;0.30;;;;;;;8.46;35.98;100431.81;7385880;19;20042;-63
2022/03/31 11:44:29;;;;;;;2.08;0.15;;;;;;;8.59;35.98;100429.63;7383288;19;20035;-63
2022/03/31 11:46:57;;;;;;;1.83;0.17;;;;;;;8.72;37.39;100431.91;7387171;19;20390;-63
2022/03/31 11:49:27;;;;;;;4.40;0.50;;;;;;;8.86;37.00;100423.47;7384291;19;20011;-63